createdAt,value
2018-12-14T00:00:19.275Z,61.10
2018-12-14T00:00:55.586Z,61.10
2018-12-14T00:01:32.896Z,61.10
2018-12-14T00:02:09.119Z,61.10
2018-12-14T00:02:42.643Z,60.90
2018-12-14T00:03:16.733Z,60.80
2018-12-14T00:03:50.200Z,60.70
2018-12-14T00:04:23.896Z,60.60
2018-12-14T00:04:57.324Z,60.80
2018-12-14T00:05:30.922Z,60.90
2018-12-14T00:06:04.569Z,61.10
2018-12-14T00:06:38.071Z,61.10
2018-12-14T00:07:11.517Z,61.00
2018-12-14T00:07:45.020Z,61.10
2018-12-14T00:08:18.526Z,61.10
2018-12-14T00:08:52.007Z,61.00
2018-12-14T00:09:25.506Z,60.90
2018-12-14T00:09:59.581Z,61.00
2018-12-14T00:10:33.082Z,61.10
2018-12-14T00:11:06.520Z,60.90
2018-12-14T00:11:45.392Z,60.70
2018-12-14T00:12:16.411Z,60.70
2018-12-14T00:12:49.854Z,60.80
2018-12-14T00:13:23.318Z,60.90
2018-12-14T00:13:57.419Z,60.90
2018-12-14T00:14:30.874Z,60.80
2018-12-14T00:15:06.206Z,60.80
2018-12-14T00:15:39.830Z,60.90
2018-12-14T00:16:13.623Z,60.70
2018-12-14T00:16:47.096Z,60.90
2018-12-14T00:17:20.669Z,61.10
2018-12-14T00:17:54.153Z,61.10
2018-12-14T00:18:27.632Z,61.20
2018-12-14T00:19:01.090Z,61.20
2018-12-14T00:19:34.558Z,61.00
2018-12-14T00:20:09.396Z,60.90
2018-12-14T00:20:42.851Z,60.90
2018-12-14T00:21:16.652Z,61.20
2018-12-14T00:21:50.156Z,61.20
2018-12-14T00:22:23.581Z,61.20
2018-12-14T00:22:57.089Z,61.20
2018-12-14T00:23:31.181Z,61.10
2018-12-14T00:24:04.697Z,61.00
2018-12-14T00:24:38.129Z,61.00
2018-12-14T00:25:11.695Z,60.90
2018-12-14T00:25:45.839Z,60.90
2018-12-14T00:26:19.459Z,60.80
2018-12-14T00:26:52.881Z,60.60
2018-12-14T00:27:26.455Z,60.50
2018-12-14T00:27:59.943Z,60.50
2018-12-14T00:28:33.446Z,60.50
2018-12-14T00:29:07.738Z,60.40
2018-12-14T00:29:41.641Z,60.50
2018-12-14T00:30:15.201Z,60.70
2018-12-14T00:30:48.645Z,60.70
2018-12-14T00:31:22.072Z,60.70
2018-12-14T00:31:55.593Z,60.70
2018-12-14T00:32:29.180Z,60.60
2018-12-14T00:33:02.610Z,60.60
2018-12-14T00:33:36.094Z,60.70
2018-12-14T00:34:09.617Z,60.50
2018-12-14T00:34:43.059Z,60.50
2018-12-14T00:35:16.867Z,60.50
2018-12-14T00:35:50.463Z,60.70
2018-12-14T00:36:24.759Z,60.90
2018-12-14T00:36:58.331Z,61.00
2018-12-14T00:37:31.848Z,60.70
2018-12-14T00:38:05.342Z,60.80
2018-12-14T00:38:38.955Z,60.50
2018-12-14T00:39:12.416Z,60.50
2018-12-14T00:39:45.872Z,60.40
2018-12-14T00:40:19.300Z,60.50
2018-12-14T00:40:52.761Z,60.40
2018-12-14T00:41:26.233Z,60.30
2018-12-14T00:41:59.727Z,60.40
2018-12-14T00:42:33.312Z,60.50
2018-12-14T00:43:06.798Z,60.50
2018-12-14T00:43:40.254Z,60.60
2018-12-14T00:44:13.805Z,60.90
2018-12-14T00:44:47.985Z,61.10
2018-12-14T00:45:21.434Z,60.90
2018-12-14T00:45:54.874Z,60.90
2018-12-14T00:46:28.436Z,60.70
2018-12-14T00:47:02.374Z,61.40
2018-12-14T00:47:35.837Z,60.70
2018-12-14T00:48:09.628Z,60.60
2018-12-14T00:48:43.082Z,60.70
2018-12-14T00:49:16.593Z,60.60
2018-12-14T00:49:50.071Z,60.60
2018-12-14T00:50:24.198Z,60.90
2018-12-14T00:50:57.745Z,60.80
2018-12-14T00:51:31.270Z,60.70
2018-12-14T00:52:04.838Z,60.80
2018-12-14T00:52:38.333Z,60.90
2018-12-14T00:53:11.807Z,61.00
2018-12-14T00:53:45.320Z,60.80
2018-12-14T00:54:19.454Z,60.80
2018-12-14T00:54:52.982Z,60.80
2018-12-14T00:55:26.638Z,60.90
2018-12-14T00:56:00.077Z,61.10
2018-12-14T00:56:33.605Z,61.00
2018-12-14T00:57:07.081Z,61.20
2018-12-14T00:57:40.550Z,61.10
2018-12-14T00:58:14.719Z,61.30
2018-12-14T00:58:48.164Z,61.50
2018-12-14T00:59:21.721Z,62.10
2018-12-14T00:59:55.127Z,61.40
2018-12-14T01:00:28.719Z,61.40
2018-12-14T01:01:02.194Z,61.20
2018-12-14T01:01:35.645Z,61.20
2018-12-14T01:02:13.370Z,61.80
2018-12-14T01:02:46.759Z,61.10
2018-12-14T01:03:20.220Z,61.20
2018-12-14T01:03:53.666Z,61.30
2018-12-14T01:04:27.441Z,61.30
2018-12-14T01:05:00.912Z,61.30
2018-12-14T01:05:34.542Z,61.30
2018-12-14T01:06:07.973Z,61.30
2018-12-14T01:06:42.381Z,61.30
2018-12-14T01:07:15.856Z,61.50
2018-12-14T01:07:49.330Z,61.60
2018-12-14T01:08:22.834Z,61.70
2018-12-14T01:08:56.313Z,61.70
2018-12-14T01:09:29.917Z,61.50
2018-12-14T01:10:04.022Z,61.60
2018-12-14T01:10:37.577Z,61.50
2018-12-14T01:11:11.065Z,61.50
2018-12-14T01:11:44.542Z,61.60
2018-12-14T01:12:18.050Z,61.20
2018-12-14T01:12:51.526Z,61.40
2018-12-14T01:13:24.954Z,61.50
2018-12-14T01:13:58.855Z,61.60
2018-12-14T01:14:32.485Z,61.50
2018-12-14T01:15:06.168Z,61.40
2018-12-14T01:15:39.648Z,61.30
2018-12-14T01:16:13.770Z,61.30
2018-12-14T01:16:48.062Z,61.20
2018-12-14T01:17:21.516Z,61.10
2018-12-14T01:17:54.999Z,60.80
2018-12-14T01:18:28.493Z,61.20
2018-12-14T01:19:01.992Z,61.10
2018-12-14T01:19:35.707Z,61.00
2018-12-14T01:20:10.012Z,61.00
2018-12-14T01:20:44.321Z,60.90
2018-12-14T01:21:17.803Z,60.90
2018-12-14T01:21:51.272Z,61.10
2018-12-14T01:22:24.777Z,61.20
2018-12-14T01:22:58.209Z,60.90
2018-12-14T01:23:31.670Z,61.40
2018-12-14T01:24:05.224Z,61.20
2018-12-14T01:24:38.758Z,61.30
2018-12-14T01:25:12.425Z,61.60
2018-12-14T01:25:45.955Z,61.60
2018-12-14T01:26:20.147Z,61.70
2018-12-14T01:26:53.657Z,62.00
2018-12-14T01:27:27.114Z,62.00
2018-12-14T01:28:05.040Z,62.20
2018-12-14T01:28:41.461Z,62.20
2018-12-14T01:29:14.916Z,62.30
2018-12-14T01:29:48.347Z,62.10
2018-12-14T01:30:21.844Z,62.10
2018-12-14T01:30:55.338Z,62.10
2018-12-14T01:31:28.890Z,62.20
2018-12-14T01:32:02.362Z,61.80
2018-12-14T01:32:35.800Z,62.00
2018-12-14T01:33:09.288Z,62.00
2018-12-14T01:33:42.849Z,62.00
2018-12-14T01:34:16.363Z,62.00
2018-12-14T01:34:49.998Z,62.00
2018-12-14T01:35:23.561Z,61.90
2018-12-14T01:35:57.074Z,62.00
2018-12-14T01:36:30.774Z,62.10
2018-12-14T01:37:04.260Z,62.30
2018-12-14T01:37:37.714Z,62.20
2018-12-14T01:38:11.223Z,62.10
2018-12-14T01:38:44.645Z,62.10
2018-12-14T01:39:18.102Z,62.20
2018-12-14T01:39:51.577Z,62.10
2018-12-14T01:40:25.227Z,62.20
2018-12-14T01:40:59.409Z,62.30
2018-12-14T01:41:33.029Z,62.20
2018-12-14T01:42:06.540Z,62.30
2018-12-14T01:42:40.638Z,62.20
2018-12-14T01:43:14.101Z,62.10
2018-12-14T01:43:47.807Z,62.00
2018-12-14T01:44:21.292Z,61.90
2018-12-14T01:44:54.783Z,62.00
2018-12-14T01:45:29.230Z,61.90
2018-12-14T01:46:02.720Z,62.00
2018-12-14T01:46:36.210Z,61.90
2018-12-14T01:47:09.703Z,61.80
2018-12-14T01:47:43.174Z,61.90
2018-12-14T01:48:17.218Z,61.80
2018-12-14T01:48:50.629Z,61.70
2018-12-14T01:49:24.917Z,61.70
2018-12-14T01:49:58.390Z,61.70
2018-12-14T01:50:31.902Z,61.70
2018-12-14T01:51:05.915Z,61.70
2018-12-14T01:51:40.098Z,61.70
2018-12-14T01:52:13.837Z,61.80
2018-12-14T01:52:47.305Z,61.90
2018-12-14T01:53:20.743Z,61.80
2018-12-14T01:53:54.205Z,61.80
2018-12-14T01:54:27.669Z,61.60
2018-12-14T01:55:01.609Z,61.60
2018-12-14T01:55:35.377Z,61.50
2018-12-14T01:56:09.394Z,61.60
2018-12-14T01:56:42.909Z,61.60
2018-12-14T01:57:16.547Z,61.50
2018-12-14T01:57:50.009Z,61.50
2018-12-14T01:58:24.308Z,61.50
2018-12-14T01:58:58.436Z,61.50
2018-12-14T01:59:32.228Z,61.50
2018-12-14T02:00:06.123Z,61.60
2018-12-14T02:00:39.816Z,61.30
2018-12-14T02:01:13.311Z,61.10
2018-12-14T02:01:46.807Z,61.10
2018-12-14T02:02:20.273Z,61.10
2018-12-14T02:02:53.742Z,61.10
2018-12-14T02:03:27.738Z,61.30
2018-12-14T02:04:01.198Z,61.20
2018-12-14T02:04:34.892Z,61.10
2018-12-14T02:05:09.197Z,61.10
2018-12-14T02:05:42.695Z,61.00
2018-12-14T02:06:16.447Z,60.80
2018-12-14T02:06:50.259Z,60.80
2018-12-14T02:07:24.148Z,60.80
2018-12-14T02:07:57.560Z,60.70
2018-12-14T02:08:31.031Z,60.70
2018-12-14T02:09:05.997Z,60.60
2018-12-14T02:09:39.429Z,60.70
2018-12-14T02:10:12.865Z,60.80
2018-12-14T02:10:46.350Z,61.00
2018-12-14T02:11:20.002Z,61.00
2018-12-14T02:11:53.463Z,61.20
2018-12-14T02:12:26.972Z,61.20
2018-12-14T02:13:00.877Z,61.30
2018-12-14T02:13:34.412Z,61.30
2018-12-14T02:14:07.836Z,61.30
2018-12-14T02:14:41.309Z,61.10
2018-12-14T02:15:15.719Z,61.00
2018-12-14T02:15:49.161Z,60.90
2018-12-14T02:16:22.600Z,61.70
2018-12-14T02:16:56.107Z,61.10
2018-12-14T02:17:29.922Z,61.10
2018-12-14T02:18:03.361Z,61.00
2018-12-14T02:18:36.859Z,61.00
2018-12-14T02:19:10.299Z,61.20
2018-12-14T02:19:43.701Z,61.20
2018-12-14T02:20:17.193Z,61.20
2018-12-14T02:20:50.652Z,61.20
2018-12-14T02:21:24.165Z,61.20
2018-12-14T02:21:57.663Z,61.40
2018-12-14T02:22:31.168Z,61.40
2018-12-14T02:23:04.630Z,61.40
2018-12-14T02:23:38.117Z,61.20
2018-12-14T02:24:11.565Z,61.20
2018-12-14T02:24:46.109Z,61.10
2018-12-14T02:25:19.590Z,61.40
2018-12-14T02:25:53.156Z,61.20
2018-12-14T02:26:26.686Z,61.20
2018-12-14T02:27:01.160Z,61.20
2018-12-14T02:27:34.706Z,61.10
2018-12-14T02:28:08.208Z,61.10
2018-12-14T02:28:41.718Z,61.10
2018-12-14T02:29:15.236Z,61.10
2018-12-14T02:29:49.198Z,61.20
2018-12-14T02:30:33.741Z,61.20
2018-12-14T02:31:07.330Z,61.40
2018-12-14T02:31:40.818Z,61.30
2018-12-14T02:32:14.514Z,61.20
2018-12-14T02:32:48.056Z,61.10
2018-12-14T02:33:21.831Z,61.20
2018-12-14T02:33:55.333Z,61.10
2018-12-14T02:34:29.508Z,61.20
2018-12-14T02:35:02.973Z,61.30
2018-12-14T02:35:36.453Z,61.20
2018-12-14T02:36:09.945Z,61.40
2018-12-14T02:36:43.531Z,61.30
2018-12-14T02:37:17.213Z,61.30
2018-12-14T02:37:50.824Z,61.30
2018-12-14T02:38:24.490Z,61.20
2018-12-14T02:38:57.966Z,61.30
2018-12-14T02:39:31.604Z,61.30
2018-12-14T02:40:05.314Z,61.30
2018-12-14T02:40:38.782Z,61.20
2018-12-14T02:41:12.295Z,61.30
2018-12-14T02:41:46.234Z,61.40
2018-12-14T02:42:19.762Z,61.30
2018-12-14T02:42:53.361Z,61.40
2018-12-14T02:43:27.308Z,61.40
2018-12-14T02:44:00.805Z,61.40
2018-12-14T02:44:34.903Z,61.40
2018-12-14T02:45:08.483Z,61.40
2018-12-14T02:45:42.694Z,61.10
2018-12-14T02:46:16.980Z,60.70
2018-12-14T02:46:50.449Z,60.80
2018-12-14T02:47:23.930Z,60.80
2018-12-14T02:47:57.463Z,60.90
2018-12-14T02:48:30.974Z,60.90
2018-12-14T02:49:04.469Z,60.90
2018-12-14T02:49:37.991Z,61.50
2018-12-14T02:50:11.411Z,60.90
2018-12-14T02:50:45.021Z,60.90
2018-12-14T02:51:18.613Z,61.00
2018-12-14T02:51:52.127Z,61.00
2018-12-14T02:52:25.618Z,61.00
2018-12-14T02:52:59.077Z,61.00
2018-12-14T02:53:32.537Z,60.80
2018-12-14T02:54:05.999Z,60.80
2018-12-14T02:54:39.472Z,60.90
2018-12-14T02:55:13.097Z,61.00
2018-12-14T02:55:46.540Z,60.80
2018-12-14T02:56:20.002Z,60.70
2018-12-14T02:56:53.443Z,60.70
2018-12-14T02:57:26.935Z,60.70
2018-12-14T02:58:00.392Z,60.80
2018-12-14T02:58:34.609Z,60.90
2018-12-14T02:59:09.426Z,60.70
2018-12-14T02:59:42.858Z,60.70
2018-12-14T03:00:16.361Z,60.80
2018-12-14T03:00:50.263Z,61.60
2018-12-14T03:01:23.777Z,61.10
2018-12-14T03:01:57.319Z,61.10
2018-12-14T03:02:31.122Z,61.10
2018-12-14T03:03:04.606Z,61.20
2018-12-14T03:03:38.250Z,61.10
2018-12-14T03:04:11.717Z,61.10
2018-12-14T03:04:45.199Z,60.80
2018-12-14T03:05:19.522Z,60.80
2018-12-14T03:05:53.029Z,60.80
2018-12-14T03:06:26.491Z,60.80
2018-12-14T03:07:00.263Z,60.80
2018-12-14T03:07:33.772Z,60.80
2018-12-14T03:08:07.221Z,60.90
2018-12-14T03:08:40.659Z,60.80
2018-12-14T03:09:14.258Z,60.60
2018-12-14T03:09:47.844Z,60.90
2018-12-14T03:10:21.270Z,60.20
2018-12-14T03:10:54.715Z,60.90
2018-12-14T03:11:28.206Z,60.90
2018-12-14T03:12:01.743Z,60.90
2018-12-14T03:12:35.386Z,60.90
2018-12-14T03:13:08.841Z,61.00
2018-12-14T03:13:42.382Z,60.90
2018-12-14T03:14:16.690Z,61.00
2018-12-14T03:14:50.161Z,61.00
2018-12-14T03:15:23.636Z,61.00
2018-12-14T03:15:57.320Z,61.10
2018-12-14T03:16:31.790Z,61.00
2018-12-14T03:17:05.437Z,61.00
2018-12-14T03:17:39.555Z,60.90
2018-12-14T03:18:13.106Z,61.00
2018-12-14T03:18:46.667Z,61.00
2018-12-14T03:19:20.127Z,61.10
2018-12-14T03:19:54.031Z,61.00
2018-12-14T03:20:29.501Z,61.10
2018-12-14T03:21:02.986Z,61.10
2018-12-14T03:21:36.487Z,60.80
2018-12-14T03:22:11.407Z,61.10
2018-12-14T03:22:44.963Z,60.70
2018-12-14T03:23:18.447Z,60.60
2018-12-14T03:23:52.488Z,60.70
2018-12-14T03:24:25.937Z,60.60
2018-12-14T03:24:59.458Z,60.50
2018-12-14T03:25:33.542Z,60.40
2018-12-14T03:26:07.605Z,60.30
2018-12-14T03:26:41.721Z,60.40
2018-12-14T03:27:15.228Z,60.20
2018-12-14T03:27:48.670Z,60.10
2018-12-14T03:28:22.165Z,60.00
2018-12-14T03:28:55.661Z,60.00
2018-12-14T03:29:29.214Z,60.00
2018-12-14T03:30:02.687Z,60.00
2018-12-14T03:30:36.204Z,59.90
2018-12-14T03:31:09.650Z,59.80
2018-12-14T03:31:43.099Z,59.70
2018-12-14T03:32:16.584Z,59.80
2018-12-14T03:32:50.206Z,59.70
2018-12-14T03:33:23.809Z,59.70
2018-12-14T03:33:57.844Z,59.50
2018-12-14T03:34:31.942Z,59.50
2018-12-14T03:35:05.939Z,59.60
2018-12-14T03:35:39.390Z,59.40
2018-12-14T03:36:12.861Z,59.40
2018-12-14T03:36:46.355Z,59.60
2018-12-14T03:37:19.794Z,59.60
2018-12-14T03:37:53.814Z,59.40
2018-12-14T03:38:27.386Z,59.30
2018-12-14T03:39:00.834Z,59.30
2018-12-14T03:39:34.433Z,59.30
2018-12-14T03:40:07.922Z,59.30
2018-12-14T03:40:41.389Z,59.40
2018-12-14T03:41:14.897Z,59.60
2018-12-14T03:41:49.026Z,59.50
2018-12-14T03:42:22.466Z,59.40
2018-12-14T03:42:55.948Z,59.50
2018-12-14T03:43:29.676Z,59.50
2018-12-14T03:44:03.265Z,59.30
2018-12-14T03:44:36.709Z,59.20
2018-12-14T03:45:10.340Z,59.30
2018-12-14T03:45:43.884Z,59.40
2018-12-14T03:46:17.925Z,59.30
2018-12-14T03:46:51.380Z,59.20
2018-12-14T03:47:24.829Z,59.10
2018-12-14T03:47:58.251Z,58.90
2018-12-14T03:48:31.931Z,58.80
2018-12-14T03:49:05.508Z,58.70
2018-12-14T03:49:38.972Z,58.70
2018-12-14T03:50:12.578Z,58.70
2018-12-14T03:50:46.058Z,58.60
2018-12-14T03:51:24.492Z,58.50
2018-12-14T03:51:57.992Z,58.40
2018-12-14T03:52:33.349Z,58.50
2018-12-14T03:53:07.547Z,58.30
2018-12-14T03:53:41.029Z,58.20
2018-12-14T03:54:14.486Z,58.20
2018-12-14T03:54:47.990Z,58.30
2018-12-14T03:55:21.403Z,58.30
2018-12-14T03:55:54.802Z,58.30
2018-12-14T03:56:28.523Z,58.20
2018-12-14T03:57:02.503Z,58.10
2018-12-14T03:57:36.005Z,58.70
2018-12-14T03:58:09.574Z,57.90
2018-12-14T03:58:43.056Z,57.90
2018-12-14T03:59:16.534Z,57.80
2018-12-14T03:59:50.018Z,57.90
2018-12-14T04:00:23.544Z,57.80
2018-12-14T04:00:57.010Z,57.30
2018-12-14T04:01:30.477Z,57.20
2018-12-14T04:02:03.961Z,56.90
2018-12-14T04:02:37.426Z,56.80
2018-12-14T04:03:11.060Z,56.80
2018-12-14T04:03:44.549Z,56.90
2018-12-14T04:04:18.030Z,56.80
2018-12-14T04:04:51.531Z,56.80
2018-12-14T04:05:25.079Z,56.70
2018-12-14T04:05:59.018Z,56.50
2018-12-14T04:06:32.588Z,56.60
2018-12-14T04:07:06.059Z,56.50
2018-12-14T04:07:39.596Z,56.70
2018-12-14T04:08:13.147Z,56.80
2018-12-14T04:08:46.695Z,56.90
2018-12-14T04:09:20.175Z,56.70
2018-12-14T04:09:54.406Z,56.80
2018-12-14T04:10:27.891Z,56.90
2018-12-14T04:11:01.503Z,56.80
2018-12-14T04:11:35.334Z,56.90
2018-12-14T04:12:08.915Z,56.80
2018-12-14T04:12:42.422Z,56.80
2018-12-14T04:13:15.857Z,56.50
2018-12-14T04:13:49.295Z,56.70
2018-12-14T04:14:22.809Z,57.00
2018-12-14T04:14:56.333Z,56.50
2018-12-14T04:15:29.938Z,56.10
2018-12-14T04:16:03.379Z,56.00
2018-12-14T04:16:37.358Z,56.10
2018-12-14T04:17:10.789Z,56.00
2018-12-14T04:17:44.218Z,56.00
2018-12-14T04:18:17.671Z,56.00
2018-12-14T04:18:51.213Z,56.10
2018-12-14T04:19:24.735Z,56.10
2018-12-14T04:19:58.242Z,56.10
2018-12-14T04:20:31.747Z,55.80
2018-12-14T04:21:05.417Z,55.60
2018-12-14T04:21:41.386Z,55.50
2018-12-14T04:22:14.949Z,55.70
2018-12-14T04:22:48.396Z,55.60
2018-12-14T04:23:21.932Z,55.70
2018-12-14T04:23:55.416Z,55.80
2018-12-14T04:24:29.513Z,55.80
2018-12-14T04:25:03.036Z,55.70
2018-12-14T04:25:37.376Z,55.70
2018-12-14T04:26:10.853Z,55.80
2018-12-14T04:26:44.343Z,56.00
2018-12-14T04:27:18.134Z,55.80
2018-12-14T04:27:52.363Z,55.70
2018-12-14T04:28:25.910Z,55.60
2018-12-14T04:28:59.424Z,55.30
2018-12-14T04:29:32.879Z,55.40
2018-12-14T04:30:07.283Z,55.30
2018-12-14T04:30:40.778Z,55.30
2018-12-14T04:31:14.333Z,55.10
2018-12-14T04:31:47.769Z,54.90
2018-12-14T04:32:21.307Z,55.00
2018-12-14T04:32:54.863Z,55.00
2018-12-14T04:33:28.616Z,55.10
2018-12-14T04:34:02.077Z,55.20
2018-12-14T04:34:35.625Z,55.40
2018-12-14T04:35:09.807Z,55.30
2018-12-14T04:35:43.358Z,55.40
2018-12-14T04:36:17.623Z,55.30
2018-12-14T04:36:51.932Z,55.40
2018-12-14T04:37:25.956Z,55.50
2018-12-14T04:37:59.870Z,55.60
2018-12-14T04:38:33.324Z,55.60
2018-12-14T04:39:07.576Z,55.50
2018-12-14T04:39:41.336Z,55.60
2018-12-14T04:40:14.754Z,55.70
2018-12-14T04:40:48.216Z,55.70
2018-12-14T04:41:21.663Z,55.80
2018-12-14T04:41:55.181Z,55.80
2018-12-14T04:42:28.782Z,55.90
2018-12-14T04:43:02.245Z,56.10
2018-12-14T04:43:35.726Z,56.20
2018-12-14T04:44:09.243Z,56.40
2018-12-14T04:44:42.873Z,56.40
2018-12-14T04:45:16.597Z,56.10
2018-12-14T04:45:50.075Z,55.70
2018-12-14T04:46:23.511Z,55.70
2018-12-14T04:46:57.454Z,55.80
2018-12-14T04:47:30.970Z,55.70
2018-12-14T04:48:04.453Z,55.80
2018-12-14T04:48:37.950Z,55.90
2018-12-14T04:49:11.416Z,56.00
2018-12-14T04:49:45.010Z,56.20
2018-12-14T04:50:18.514Z,56.30
2018-12-14T04:50:52.004Z,56.40
2018-12-14T04:51:25.575Z,56.50
2018-12-14T04:52:01.539Z,56.60
2018-12-14T04:52:35.093Z,56.60
2018-12-14T04:53:08.574Z,56.70
2018-12-14T04:53:42.063Z,56.50
2018-12-14T04:54:15.555Z,56.60
2018-12-14T04:54:49.311Z,56.60
2018-12-14T04:55:22.786Z,56.50
2018-12-14T04:55:56.272Z,56.50
2018-12-14T04:56:29.801Z,56.50
2018-12-14T04:57:03.288Z,56.60
2018-12-14T04:57:37.356Z,56.50
2018-12-14T04:58:11.588Z,56.50
2018-12-14T04:58:45.702Z,56.40
2018-12-14T04:59:19.130Z,56.60
2018-12-14T04:59:52.578Z,56.60
2018-12-14T05:00:26.758Z,56.50
2018-12-14T05:01:00.981Z,56.50
2018-12-14T05:01:35.091Z,56.30
2018-12-14T05:02:08.621Z,56.20
2018-12-14T05:02:42.738Z,56.10
2018-12-14T05:03:16.912Z,56.00
2018-12-14T05:03:50.381Z,55.80
2018-12-14T05:04:23.849Z,55.50
2018-12-14T05:04:57.259Z,55.30
2018-12-14T05:05:31.643Z,55.20
2018-12-14T05:06:05.100Z,55.10
2018-12-14T05:06:38.644Z,55.30
2018-12-14T05:07:12.199Z,55.30
2018-12-14T05:07:46.289Z,55.40
2018-12-14T05:08:19.794Z,55.40
2018-12-14T05:08:53.271Z,55.50
2018-12-14T05:09:26.784Z,55.50
2018-12-14T05:10:00.937Z,55.40
2018-12-14T05:10:34.662Z,55.30
2018-12-14T05:11:08.183Z,55.30
2018-12-14T05:11:42.211Z,55.00
2018-12-14T05:12:15.625Z,55.00
2018-12-14T05:12:55.851Z,55.10
2018-12-14T05:13:24.552Z,55.10
2018-12-14T05:13:58.162Z,55.30
2018-12-14T05:14:31.695Z,55.20
2018-12-14T05:15:05.698Z,55.20
2018-12-14T05:15:39.160Z,55.00
2018-12-14T05:16:12.617Z,54.80
2018-12-14T05:16:46.059Z,55.00
2018-12-14T05:17:19.505Z,55.00
2018-12-14T05:17:52.994Z,55.00
2018-12-14T05:18:26.461Z,55.20
2018-12-14T05:18:59.932Z,55.00
2018-12-14T05:19:34.201Z,55.10
2018-12-14T05:20:08.160Z,54.90
2018-12-14T05:20:42.000Z,54.80
2018-12-14T05:21:15.649Z,54.90
2018-12-14T05:21:49.273Z,55.30
2018-12-14T05:22:22.734Z,54.50
2018-12-14T05:22:56.222Z,54.30
2018-12-14T05:23:30.297Z,54.10
2018-12-14T05:24:03.873Z,54.10
2018-12-14T05:24:37.349Z,54.20
2018-12-14T05:25:11.197Z,54.20
2018-12-14T05:25:44.640Z,54.20
2018-12-14T05:26:18.054Z,54.20
2018-12-14T05:26:51.538Z,54.30
2018-12-14T05:27:25.115Z,54.10
2018-12-14T05:27:58.568Z,53.90
2018-12-14T05:28:32.018Z,53.50
2018-12-14T05:29:05.502Z,53.30
2018-12-14T05:29:39.049Z,53.10
2018-12-14T05:30:12.687Z,53.00
2018-12-14T05:30:46.158Z,52.90
2018-12-14T05:31:19.731Z,52.60
2018-12-14T05:31:53.209Z,52.50
2018-12-14T05:32:26.708Z,52.50
2018-12-14T05:33:00.448Z,52.50
2018-12-14T05:33:33.977Z,52.50
2018-12-14T05:34:07.407Z,52.50
2018-12-14T05:34:40.849Z,52.40
2018-12-14T05:35:14.330Z,52.30
2018-12-14T05:35:47.745Z,52.30
2018-12-14T05:36:22.121Z,52.30
2018-12-14T05:36:55.555Z,52.10
2018-12-14T05:37:29.090Z,51.90
2018-12-14T05:38:03.082Z,52.00
2018-12-14T05:38:36.533Z,52.10
2018-12-14T05:39:09.994Z,52.00
2018-12-14T05:39:43.462Z,52.00
2018-12-14T05:40:16.944Z,52.00
2018-12-14T05:40:50.393Z,52.00
2018-12-14T05:41:24.457Z,52.00
2018-12-14T05:41:57.898Z,51.80
2018-12-14T05:42:31.363Z,52.00
2018-12-14T05:43:04.877Z,51.80
2018-12-14T05:43:38.430Z,51.90
2018-12-14T05:44:11.931Z,51.80
2018-12-14T05:44:45.425Z,52.00
2018-12-14T05:45:18.926Z,51.90
2018-12-14T05:45:52.452Z,51.90
2018-12-14T05:46:25.953Z,51.80
2018-12-14T05:46:59.411Z,51.80
2018-12-14T05:47:33.499Z,51.80
2018-12-14T05:48:06.961Z,51.90
2018-12-14T05:48:40.774Z,52.10
2018-12-14T05:49:14.250Z,52.10
2018-12-14T05:49:48.191Z,52.10
2018-12-14T05:50:21.617Z,52.00
2018-12-14T05:50:55.674Z,52.00
2018-12-14T05:51:29.139Z,52.10
2018-12-14T05:52:02.573Z,52.40
2018-12-14T05:52:36.123Z,52.70
2018-12-14T05:53:09.566Z,52.90
2018-12-14T05:53:43.086Z,53.20
2018-12-14T05:54:17.167Z,53.30
2018-12-14T05:54:50.623Z,53.20
2018-12-14T05:55:24.184Z,53.30
2018-12-14T05:55:57.596Z,53.20
2018-12-14T05:56:31.078Z,53.20
2018-12-14T05:57:04.640Z,53.40
2018-12-14T05:57:38.148Z,53.40
2018-12-14T05:58:11.590Z,53.50
2018-12-14T05:58:45.057Z,53.50
2018-12-14T05:59:18.543Z,53.70
2018-12-14T05:59:52.044Z,53.70
2018-12-14T06:00:25.531Z,53.90
2018-12-14T06:00:59.005Z,54.00
2018-12-14T06:01:32.551Z,54.20
2018-12-14T06:02:06.009Z,54.40
2018-12-14T06:02:39.997Z,54.50
2018-12-14T06:03:13.409Z,54.60
2018-12-14T06:03:46.969Z,54.70
2018-12-14T06:04:20.514Z,54.90
2018-12-14T06:04:54.006Z,55.10
2018-12-14T06:05:27.451Z,55.30
2018-12-14T06:06:01.020Z,55.30
2018-12-14T06:06:34.656Z,55.10
2018-12-14T06:07:08.160Z,55.00
2018-12-14T06:07:41.573Z,55.10
2018-12-14T06:08:15.083Z,55.10
2018-12-14T06:08:48.561Z,55.20
2018-12-14T06:09:22.150Z,55.20
2018-12-14T06:09:55.610Z,55.30
2018-12-14T06:10:29.766Z,55.50
2018-12-14T06:11:03.235Z,55.20
2018-12-14T06:11:36.701Z,55.30
2018-12-14T06:12:10.323Z,55.20
2018-12-14T06:12:43.793Z,55.30
2018-12-14T06:13:17.264Z,55.30
2018-12-14T06:13:51.391Z,55.30
2018-12-14T06:14:24.886Z,55.30
2018-12-14T06:14:58.406Z,55.40
2018-12-14T06:15:31.853Z,55.50
2018-12-14T06:16:05.306Z,55.70
2018-12-14T06:16:38.822Z,55.70
2018-12-14T06:17:12.285Z,55.80
2018-12-14T06:17:45.762Z,55.80
2018-12-14T06:18:19.242Z,56.10
2018-12-14T06:18:52.815Z,56.20
2018-12-14T06:19:26.254Z,56.20
2018-12-14T06:19:59.693Z,56.40
2018-12-14T06:20:33.171Z,56.40
2018-12-14T06:21:06.650Z,56.40
2018-12-14T06:21:40.134Z,56.20
2018-12-14T06:22:13.620Z,56.30
2018-12-14T06:22:47.122Z,56.50
2018-12-14T06:23:21.164Z,56.50
2018-12-14T06:23:54.662Z,56.50
2018-12-14T06:24:28.156Z,56.60
2018-12-14T06:25:01.650Z,56.50
2018-12-14T06:25:35.249Z,56.60
2018-12-14T06:26:08.853Z,56.60
2018-12-14T06:26:42.300Z,56.50
2018-12-14T06:27:15.816Z,56.40
2018-12-14T06:27:49.373Z,56.30
2018-12-14T06:28:22.961Z,56.30
2018-12-14T06:28:56.871Z,56.40
2018-12-14T06:29:30.438Z,56.50
2018-12-14T06:30:04.741Z,56.20
2018-12-14T06:30:38.185Z,56.20
2018-12-14T06:31:11.774Z,56.20
2018-12-14T06:31:46.045Z,56.30
2018-12-14T06:32:19.523Z,56.40
2018-12-14T06:32:53.038Z,56.30
2018-12-14T06:33:27.396Z,56.30
2018-12-14T06:34:00.903Z,56.40
2018-12-14T06:34:35.707Z,56.40
2018-12-14T06:35:09.163Z,56.50
2018-12-14T06:35:42.616Z,56.50
2018-12-14T06:36:16.285Z,56.60
2018-12-14T06:36:49.783Z,56.50
2018-12-14T06:37:23.406Z,56.50
2018-12-14T06:37:56.867Z,56.40
2018-12-14T06:38:30.370Z,56.40
2018-12-14T06:39:05.999Z,56.20
2018-12-14T06:39:39.644Z,56.10
2018-12-14T06:40:13.285Z,56.00
2018-12-14T06:40:46.809Z,56.20
2018-12-14T06:41:20.310Z,56.30
2018-12-14T06:41:54.001Z,56.50
2018-12-14T06:42:27.514Z,56.40
2018-12-14T06:43:01.116Z,56.40
2018-12-14T06:43:35.122Z,56.30
2018-12-14T06:44:08.582Z,56.30
2018-12-14T06:44:42.024Z,56.20
2018-12-14T06:45:16.178Z,56.20
2018-12-14T06:45:49.689Z,57.00
2018-12-14T06:46:23.136Z,56.50
2018-12-14T06:46:56.614Z,56.50
2018-12-14T06:47:30.924Z,56.50
2018-12-14T06:48:04.431Z,56.60
2018-12-14T06:48:37.901Z,56.60
2018-12-14T06:49:11.403Z,56.50
2018-12-14T06:49:44.845Z,56.40
2018-12-14T06:50:18.924Z,56.40
2018-12-14T06:50:52.469Z,56.30
2018-12-14T06:51:25.912Z,56.40
2018-12-14T06:51:59.416Z,56.50
2018-12-14T06:52:32.914Z,56.50
2018-12-14T06:53:06.496Z,56.50
2018-12-14T06:53:39.966Z,56.20
2018-12-14T06:54:13.430Z,56.10
2018-12-14T06:54:46.910Z,55.90
2018-12-14T06:55:20.346Z,56.00
2018-12-14T06:55:53.830Z,56.20
2018-12-14T06:56:27.299Z,56.00
2018-12-14T06:57:01.480Z,56.00
2018-12-14T06:57:35.130Z,56.00
2018-12-14T06:58:08.596Z,56.00
2018-12-14T06:58:42.036Z,56.00
2018-12-14T06:59:15.605Z,56.20
2018-12-14T06:59:49.085Z,56.20
2018-12-14T07:00:22.533Z,56.20
2018-12-14T07:00:56.943Z,56.20
2018-12-14T07:01:30.366Z,56.20
2018-12-14T07:02:04.102Z,56.10
2018-12-14T07:02:37.596Z,56.10
2018-12-14T07:03:11.671Z,56.20
2018-12-14T07:03:45.123Z,56.20
2018-12-14T07:04:19.864Z,56.10
2018-12-14T07:04:53.956Z,56.10
2018-12-14T07:05:27.441Z,56.10
2018-12-14T07:06:00.894Z,56.20
2018-12-14T07:06:34.373Z,56.20
2018-12-14T07:07:07.814Z,56.30
2018-12-14T07:07:41.931Z,56.30
2018-12-14T07:08:15.441Z,56.30
2018-12-14T07:08:48.926Z,56.10
2018-12-14T07:09:22.473Z,56.00
2018-12-14T07:09:56.142Z,56.20
2018-12-14T07:10:29.611Z,56.30
2018-12-14T07:11:03.081Z,56.40
2018-12-14T07:11:36.522Z,56.40
2018-12-14T07:12:10.021Z,56.50
2018-12-14T07:12:43.589Z,56.40
2018-12-14T07:13:21.817Z,56.20
2018-12-14T07:13:53.320Z,56.30